Amagansett, New York
Current Conditions -  °F | °C
As of 3:56 PM on Saturday 20 Dec 2014 (Local Time) from KGON Reporting Station
Haze Haze  
Wind Chill: 29°   Ceiling: 3700
Heat Index: 33°   Visibility: 6mi
Dew Point: 25°   Wind: 5mph
Humidity: 72%   Direction: 340°NNW
Pressure: 30.24"   Gusts: NA
Location:  40.97°N, 72.14°W
Report Text: KGON 202056Z AUTO 34004KT 6SM HZ OVC037 01/M04 A3024 RMK AO2 SLP240 T00061039 58003
Loading
Personal Weather Stations






























Interactive Weather Map New forecast layout! Learn more

10-Day Weather Forecast

Advertisements
Track Severe Weather on mobile